sensor_id;sensor_type;location;lat;lon;timestamp;P1;durP1;ratioP1;P2;durP2;ratioP2
26562;SDS011;14217;50.986;5.826;2023-03-04T00:01:31;3.80;;;2.75;;
26562;SDS011;14217;50.986;5.826;2023-03-04T00:06:33;4.00;;;3.13;;
26562;SDS011;14217;50.986;5.826;2023-03-04T00:11:36;10.60;;;3.50;;
26562;SDS011;14217;50.986;5.826;2023-03-04T00:16:38;3.75;;;3.35;;
26562;SDS011;14217;50.986;5.826;2023-03-04T00:21:40;3.40;;;3.03;;
26562;SDS011;14217;50.986;5.826;2023-03-04T00:26:42;3.50;;;2.70;;
26562;SDS011;14217;50.986;5.826;2023-03-04T00:31:45;5.32;;;3.50;;
26562;SDS011;14217;50.986;5.826;2023-03-04T00:36:47;5.03;;;4.53;;
26562;SDS011;14217;50.986;5.826;2023-03-04T00:41:49;4.68;;;3.33;;
26562;SDS011;14217;50.986;5.826;2023-03-04T00:46:50;3.03;;;2.72;;
26562;SDS011;14217;50.986;5.826;2023-03-04T00:51:52;3.70;;;3.40;;
26562;SDS011;14217;50.986;5.826;2023-03-04T00:56:55;3.53;;;3.10;;
26562;SDS011;14217;50.986;5.826;2023-03-04T01:01:57;4.85;;;3.65;;
26562;SDS011;14217;50.986;5.826;2023-03-04T01:06:59;3.55;;;2.47;;
26562;SDS011;14217;50.986;5.826;2023-03-04T01:12:01;3.67;;;2.72;;
26562;SDS011;14217;50.986;5.826;2023-03-04T01:17:03;2.95;;;2.72;;
26562;SDS011;14217;50.986;5.826;2023-03-04T01:22:05;3.85;;;3.15;;
26562;SDS011;14217;50.986;5.826;2023-03-04T01:27:07;3.28;;;2.53;;
26562;SDS011;14217;50.986;5.826;2023-03-04T01:32:09;4.45;;;2.65;;
26562;SDS011;14217;50.986;5.826;2023-03-04T01:37:11;4.25;;;3.17;;
26562;SDS011;14217;50.986;5.826;2023-03-04T01:42:17;3.50;;;3.17;;
26562;SDS011;14217;50.986;5.826;2023-03-04T01:47:24;3.72;;;2.80;;
26562;SDS011;14217;50.986;5.826;2023-03-04T01:52:29;2.97;;;2.22;;
26562;SDS011;14217;50.986;5.826;2023-03-04T01:57:33;2.95;;;2.30;;
26562;SDS011;14217;50.986;5.826;2023-03-04T02:02:36;2.50;;;2.00;;
26562;SDS011;14217;50.986;5.826;2023-03-04T02:07:38;2.35;;;1.95;;
26562;SDS011;14217;50.986;5.826;2023-03-04T02:12:40;2.40;;;2.20;;
26562;SDS011;14217;50.986;5.826;2023-03-04T02:17:42;2.88;;;2.45;;
26562;SDS011;14217;50.986;5.826;2023-03-04T02:22:51;3.10;;;2.72;;
26562;SDS011;14217;50.986;5.826;2023-03-04T02:27:59;4.45;;;2.45;;
26562;SDS011;14217;50.986;5.826;2023-03-04T02:33:01;3.17;;;2.35;;
26562;SDS011;14217;50.986;5.826;2023-03-04T02:38:03;2.78;;;2.13;;
26562;SDS011;14217;50.986;5.826;2023-03-04T02:43:05;3.08;;;2.15;;
26562;SDS011;14217;50.986;5.826;2023-03-04T02:48:07;2.05;;;1.88;;
26562;SDS011;14217;50.986;5.826;2023-03-04T02:53:09;2.42;;;2.20;;
26562;SDS011;14217;50.986;5.826;2023-03-04T02:58:12;2.38;;;2.15;;
26562;SDS011;14217;50.986;5.826;2023-03-04T03:03:14;2.75;;;2.55;;
26562;SDS011;14217;50.986;5.826;2023-03-04T03:08:16;4.65;;;2.70;;
26562;SDS011;14217;50.986;5.826;2023-03-04T03:13:18;2.97;;;2.22;;
26562;SDS011;14217;50.986;5.826;2023-03-04T03:18:20;2.88;;;2.25;;
26562;SDS011;14217;50.986;5.826;2023-03-04T03:23:22;2.25;;;2.03;;
26562;SDS011;14217;50.986;5.826;2023-03-04T03:28:24;2.70;;;1.95;;
26562;SDS011;14217;50.986;5.826;2023-03-04T03:33:26;2.40;;;2.13;;
26562;SDS011;14217;50.986;5.826;2023-03-04T03:38:28;2.88;;;1.83;;
26562;SDS011;14217;50.986;5.826;2023-03-04T03:43:30;2.35;;;1.80;;
26562;SDS011;14217;50.986;5.826;2023-03-04T03:48:33;2.88;;;2.05;;
26562;SDS011;14217;50.986;5.826;2023-03-04T03:53:35;2.72;;;1.77;;
26562;SDS011;14217;50.986;5.826;2023-03-04T03:58:36;3.15;;;1.73;;
26562;SDS011;14217;50.986;5.826;2023-03-04T04:03:39;2.20;;;2.00;;
26562;SDS011;14217;50.986;5.826;2023-03-04T04:08:41;5.45;;;2.42;;
26562;SDS011;14217;50.986;5.826;2023-03-04T04:13:43;3.90;;;2.17;;
26562;SDS011;14217;50.986;5.826;2023-03-04T04:18:45;3.00;;;1.50;;
26562;SDS011;14217;50.986;5.826;2023-03-04T04:23:48;3.22;;;2.05;;
26562;SDS011;14217;50.986;5.826;2023-03-04T04:28:50;3.10;;;1.75;;
26562;SDS011;14217;50.986;5.826;2023-03-04T04:33:51;2.13;;;1.77;;
26562;SDS011;14217;50.986;5.826;2023-03-04T04:38:53;3.83;;;1.73;;
26562;SDS011;14217;50.986;5.826;2023-03-04T04:43:55;1.75;;;1.13;;
26562;SDS011;14217;50.986;5.826;2023-03-04T04:48:58;2.13;;;1.92;;
26562;SDS011;14217;50.986;5.826;2023-03-04T04:54:00;1.50;;;1.35;;
26562;SDS011;14217;50.986;5.826;2023-03-04T04:59:04;2.17;;;1.42;;
26562;SDS011;14217;50.986;5.826;2023-03-04T05:04:08;2.58;;;1.48;;
26562;SDS011;14217;50.986;5.826;2023-03-04T05:09:10;1.58;;;1.23;;
26562;SDS011;14217;50.986;5.826;2023-03-04T05:14:13;2.40;;;1.48;;
26562;SDS011;14217;50.986;5.826;2023-03-04T05:19:15;1.58;;;1.20;;
26562;SDS011;14217;50.986;5.826;2023-03-04T05:24:17;1.50;;;1.20;;
26562;SDS011;14217;50.986;5.826;2023-03-04T05:29:19;3.13;;;1.15;;
26562;SDS011;14217;50.986;5.826;2023-03-04T05:34:21;3.15;;;1.38;;
26562;SDS011;14217;50.986;5.826;2023-03-04T05:39:22;1.08;;;0.88;;
26562;SDS011;14217;50.986;5.826;2023-03-04T05:44:24;6.85;;;1.67;;
26562;SDS011;14217;50.986;5.826;2023-03-04T05:49:26;2.03;;;1.13;;
26562;SDS011;14217;50.986;5.826;2023-03-04T05:54:28;1.17;;;0.90;;
26562;SDS011;14217;50.986;5.826;2023-03-04T05:59:30;1.10;;;0.80;;
26562;SDS011;14217;50.986;5.826;2023-03-04T06:04:33;1.10;;;1.00;;
26562;SDS011;14217;50.986;5.826;2023-03-04T06:09:35;2.95;;;1.25;;
26562;SDS011;14217;50.986;5.826;2023-03-04T06:14:37;2.83;;;0.98;;
26562;SDS011;14217;50.986;5.826;2023-03-04T06:19:39;1.55;;;0.90;;
26562;SDS011;14217;50.986;5.826;2023-03-04T06:24:44;1.50;;;0.82;;
26562;SDS011;14217;50.986;5.826;2023-03-04T06:29:46;1.63;;;0.80;;
26562;SDS011;14217;50.986;5.826;2023-03-04T06:34:48;1.05;;;0.77;;
26562;SDS011;14217;50.986;5.826;2023-03-04T06:39:49;3.33;;;1.38;;
26562;SDS011;14217;50.986;5.826;2023-03-04T06:44:52;1.58;;;1.13;;
26562;SDS011;14217;50.986;5.826;2023-03-04T06:49:54;1.13;;;0.90;;
26562;SDS011;14217;50.986;5.826;2023-03-04T06:54:56;4.00;;;1.35;;
26562;SDS011;14217;50.986;5.826;2023-03-04T06:59:58;1.95;;;0.95;;
26562;SDS011;14217;50.986;5.826;2023-03-04T07:05:00;2.88;;;1.13;;
26562;SDS011;14217;50.986;5.826;2023-03-04T07:10:02;1.52;;;1.00;;
26562;SDS011;14217;50.986;5.826;2023-03-04T07:15:05;3.47;;;1.77;;
26562;SDS011;14217;50.986;5.826;2023-03-04T07:20:07;13.63;;;1.67;;
26562;SDS011;14217;50.986;5.826;2023-03-04T07:25:10;1.25;;;0.80;;
26562;SDS011;14217;50.986;5.826;2023-03-04T07:30:12;2.95;;;0.70;;
26562;SDS011;14217;50.986;5.826;2023-03-04T07:35:14;3.95;;;0.63;;
26562;SDS011;14217;50.986;5.826;2023-03-04T07:40:16;3.38;;;0.73;;
26562;SDS011;14217;50.986;5.826;2023-03-04T07:45:18;1.83;;;0.80;;
26562;SDS011;14217;50.986;5.826;2023-03-04T07:50:21;2.72;;;0.70;;
26562;SDS011;14217;50.986;5.826;2023-03-04T07:55:23;1.55;;;0.60;;
26562;SDS011;14217;50.986;5.826;2023-03-04T08:00:26;3.83;;;0.95;;
26562;SDS011;14217;50.986;5.826;2023-03-04T08:05:28;3.28;;;0.85;;
26562;SDS011;14217;50.986;5.826;2023-03-04T08:10:30;2.53;;;0.73;;
26562;SDS011;14217;50.986;5.826;2023-03-04T08:15:32;2.80;;;0.85;;
26562;SDS011;14217;50.986;5.826;2023-03-04T08:20:35;7.25;;;0.55;;
26562;SDS011;14217;50.986;5.826;2023-03-04T08:25:38;1.50;;;1.05;;
26562;SDS011;14217;50.986;5.826;2023-03-04T08:30:41;3.80;;;0.80;;
26562;SDS011;14217;50.986;5.826;2023-03-04T08:35:44;1.75;;;0.80;;
26562;SDS011;14217;50.986;5.826;2023-03-04T08:40:50;12.20;;;1.08;;
26562;SDS011;14217;50.986;5.826;2023-03-04T08:45:53;3.55;;;0.82;;
26562;SDS011;14217;50.986;5.826;2023-03-04T08:50:55;1.98;;;0.60;;
26562;SDS011;14217;50.986;5.826;2023-03-04T08:55:57;1.17;;;0.40;;
26562;SDS011;14217;50.986;5.826;2023-03-04T09:00:59;1.10;;;0.60;;
26562;SDS011;14217;50.986;5.826;2023-03-04T09:06:03;1.92;;;0.93;;
26562;SDS011;14217;50.986;5.826;2023-03-04T09:11:05;6.15;;;0.75;;
26562;SDS011;14217;50.986;5.826;2023-03-04T09:16:11;3.60;;;0.50;;
26562;SDS011;14217;50.986;5.826;2023-03-04T09:21:14;9.13;;;1.20;;
26562;SDS011;14217;50.986;5.826;2023-03-04T09:26:20;1.33;;;0.70;;
26562;SDS011;14217;50.986;5.826;2023-03-04T09:31:25;2.53;;;0.90;;
26562;SDS011;14217;50.986;5.826;2023-03-04T09:36:27;1.73;;;0.65;;
26562;SDS011;14217;50.986;5.826;2023-03-04T09:46:51;2.95;;;0.50;;
26562;SDS011;14217;50.986;5.826;2023-03-04T10:24:25;1.38;;;0.80;;
26562;SDS011;14217;50.986;5.826;2023-03-04T10:29:29;2.33;;;0.60;;
26562;SDS011;14217;50.986;5.826;2023-03-04T10:34:33;1.20;;;0.30;;
26562;SDS011;14217;50.986;5.826;2023-03-04T10:39:36;1.55;;;0.43;;
26562;SDS011;14217;50.986;5.826;2023-03-04T10:44:56;1.42;;;0.82;;
26562;SDS011;14217;50.986;5.826;2023-03-04T10:50:00;1.52;;;0.63;;
26562;SDS011;14217;50.986;5.826;2023-03-04T10:55:11;1.77;;;0.60;;
26562;SDS011;14217;50.986;5.826;2023-03-04T11:05:30;1.65;;;0.63;;
26562;SDS011;14217;50.986;5.826;2023-03-04T11:15:50;1.85;;;0.50;;
26562;SDS011;14217;50.986;5.826;2023-03-04T11:20:59;1.00;;;0.40;;
26562;SDS011;14217;50.986;5.826;2023-03-04T11:26:03;3.10;;;0.35;;
26562;SDS011;14217;50.986;5.826;2023-03-04T11:31:26;1.70;;;0.45;;
26562;SDS011;14217;50.986;5.826;2023-03-04T11:41:58;0.80;;;0.52;;
26562;SDS011;14217;50.986;5.826;2023-03-04T11:47:06;1.27;;;0.50;;
26562;SDS011;14217;50.986;5.826;2023-03-04T12:08:37;0.40;;;0.40;;
26562;SDS011;14217;50.986;5.826;2023-03-04T12:35:37;0.68;;;0.20;;
26562;SDS011;14217;50.986;5.826;2023-03-04T12:46:43;2.88;;;0.40;;
26562;SDS011;14217;50.986;5.826;2023-03-04T12:51:54;0.30;;;0.28;;
26562;SDS011;14217;50.986;5.826;2023-03-04T12:57:15;0.98;;;0.20;;
26562;SDS011;14217;50.986;5.826;2023-03-04T13:07:53;0.65;;;0.38;;
26562;SDS011;14217;50.986;5.826;2023-03-04T13:12:57;0.73;;;0.20;;
26562;SDS011;14217;50.986;5.826;2023-03-04T13:18:29;0.80;;;0.30;;
26562;SDS011;14217;50.986;5.826;2023-03-04T13:23:36;0.57;;;0.35;;
26562;SDS011;14217;50.986;5.826;2023-03-04T13:28:38;0.40;;;0.40;;
26562;SDS011;14217;50.986;5.826;2023-03-04T13:38:42;0.63;;;0.20;;
26562;SDS011;14217;50.986;5.826;2023-03-04T13:44:01;0.30;;;0.20;;
26562;SDS011;14217;50.986;5.826;2023-03-04T13:49:07;0.88;;;0.30;;
26562;SDS011;14217;50.986;5.826;2023-03-04T13:54:24;0.73;;;0.20;;
26562;SDS011;14217;50.986;5.826;2023-03-04T13:59:38;0.43;;;0.13;;
26562;SDS011;14217;50.986;5.826;2023-03-04T14:04:44;0.60;;;0.20;;
26562;SDS011;14217;50.986;5.826;2023-03-04T14:15:00;0.45;;;0.10;;
26562;SDS011;14217;50.986;5.826;2023-03-04T14:20:20;0.20;;;0.20;;
26562;SDS011;14217;50.986;5.826;2023-03-04T14:25:25;0.30;;;0.20;;
26562;SDS011;14217;50.986;5.826;2023-03-04T14:30:29;0.32;;;0.25;;
26562;SDS011;14217;50.986;5.826;2023-03-04T14:35:46;1.80;;;0.95;;
26562;SDS011;14217;50.986;5.826;2023-03-04T14:41:38;0.60;;;0.30;;
26562;SDS011;14217;50.986;5.826;2023-03-04T14:46:17;0.75;;;0.38;;
26562;SDS011;14217;50.986;5.826;2023-03-04T14:51:36;1.15;;;0.30;;
26562;SDS011;14217;50.986;5.826;2023-03-04T14:56:47;1.98;;;0.63;;
26562;SDS011;14217;50.986;5.826;2023-03-04T15:01:49;1.02;;;0.40;;
26562;SDS011;14217;50.986;5.826;2023-03-04T15:06:52;1.60;;;0.40;;
26562;SDS011;14217;50.986;5.826;2023-03-04T15:12:01;0.57;;;0.30;;
26562;SDS011;14217;50.986;5.826;2023-03-04T15:27:49;0.65;;;0.22;;
26562;SDS011;14217;50.986;5.826;2023-03-04T15:32:53;1.05;;;0.20;;
26562;SDS011;14217;50.986;5.826;2023-03-04T15:37:57;0.75;;;0.30;;
26562;SDS011;14217;50.986;5.826;2023-03-04T15:43:01;1.63;;;0.20;;
26562;SDS011;14217;50.986;5.826;2023-03-04T15:48:05;0.77;;;0.40;;
26562;SDS011;14217;50.986;5.826;2023-03-04T15:53:21;1.27;;;0.40;;
26562;SDS011;14217;50.986;5.826;2023-03-04T15:58:25;0.82;;;0.32;;
26562;SDS011;14217;50.986;5.826;2023-03-04T16:03:27;1.45;;;0.30;;
26562;SDS011;14217;50.986;5.826;2023-03-04T16:08:29;0.40;;;0.30;;
26562;SDS011;14217;50.986;5.826;2023-03-04T16:13:31;0.65;;;0.40;;
26562;SDS011;14217;50.986;5.826;2023-03-04T16:18:33;1.88;;;0.40;;
26562;SDS011;14217;50.986;5.826;2023-03-04T16:23:39;0.77;;;0.38;;
26562;SDS011;14217;50.986;5.826;2023-03-04T16:28:43;0.98;;;0.40;;
26562;SDS011;14217;50.986;5.826;2023-03-04T16:33:46;1.00;;;0.30;;
26562;SDS011;14217;50.986;5.826;2023-03-04T16:38:48;0.52;;;0.47;;
26562;SDS011;14217;50.986;5.826;2023-03-04T16:43:51;0.73;;;0.38;;
26562;SDS011;14217;50.986;5.826;2023-03-04T16:48:56;0.47;;;0.20;;
26562;SDS011;14217;50.986;5.826;2023-03-04T16:53:58;1.70;;;0.60;;
26562;SDS011;14217;50.986;5.826;2023-03-04T16:59:00;1.23;;;0.43;;
26562;SDS011;14217;50.986;5.826;2023-03-04T17:04:02;0.57;;;0.30;;
26562;SDS011;14217;50.986;5.826;2023-03-04T17:09:05;0.82;;;0.43;;
26562;SDS011;14217;50.986;5.826;2023-03-04T17:14:08;1.15;;;0.75;;
26562;SDS011;14217;50.986;5.826;2023-03-04T17:19:10;0.65;;;0.45;;
26562;SDS011;14217;50.986;5.826;2023-03-04T17:24:14;1.85;;;0.40;;
26562;SDS011;14217;50.986;5.826;2023-03-04T17:29:16;0.70;;;0.43;;
26562;SDS011;14217;50.986;5.826;2023-03-04T17:34:18;1.35;;;0.50;;
26562;SDS011;14217;50.986;5.826;2023-03-04T17:39:21;0.85;;;0.52;;
26562;SDS011;14217;50.986;5.826;2023-03-04T17:44:23;7.07;;;0.82;;
26562;SDS011;14217;50.986;5.826;2023-03-04T17:49:25;1.00;;;0.40;;
26562;SDS011;14217;50.986;5.826;2023-03-04T17:54:27;0.50;;;0.50;;
26562;SDS011;14217;50.986;5.826;2023-03-04T17:59:29;0.30;;;0.30;;
26562;SDS011;14217;50.986;5.826;2023-03-04T18:04:32;0.70;;;0.50;;
26562;SDS011;14217;50.986;5.826;2023-03-04T18:09:35;0.93;;;0.30;;
26562;SDS011;14217;50.986;5.826;2023-03-04T18:14:37;0.88;;;0.35;;
26562;SDS011;14217;50.986;5.826;2023-03-04T18:19:39;0.45;;;0.40;;
26562;SDS011;14217;50.986;5.826;2023-03-04T18:24:41;2.20;;;0.65;;
26562;SDS011;14217;50.986;5.826;2023-03-04T18:29:44;9.13;;;1.02;;
26562;SDS011;14217;50.986;5.826;2023-03-04T18:34:46;6.63;;;0.73;;
26562;SDS011;14217;50.986;5.826;2023-03-04T18:39:48;5.65;;;1.00;;
26562;SDS011;14217;50.986;5.826;2023-03-04T18:44:50;0.93;;;0.52;;
26562;SDS011;14217;50.986;5.826;2023-03-04T18:49:52;3.75;;;0.90;;
26562;SDS011;14217;50.986;5.826;2023-03-04T18:54:54;3.10;;;0.80;;
26562;SDS011;14217;50.986;5.826;2023-03-04T18:59:59;2.65;;;0.70;;
26562;SDS011;14217;50.986;5.826;2023-03-04T19:05:04;4.45;;;0.68;;
26562;SDS011;14217;50.986;5.826;2023-03-04T19:10:11;3.25;;;0.73;;
26562;SDS011;14217;50.986;5.826;2023-03-04T19:15:13;4.75;;;0.70;;
26562;SDS011;14217;50.986;5.826;2023-03-04T19:20:16;1.55;;;0.43;;
26562;SDS011;14217;50.986;5.826;2023-03-04T19:25:18;6.05;;;0.90;;
26562;SDS011;14217;50.986;5.826;2023-03-04T19:30:20;2.70;;;0.95;;
26562;SDS011;14217;50.986;5.826;2023-03-04T19:35:21;0.43;;;0.40;;
26562;SDS011;14217;50.986;5.826;2023-03-04T19:40:24;1.77;;;0.70;;
26562;SDS011;14217;50.986;5.826;2023-03-04T19:45:28;2.42;;;0.88;;
26562;SDS011;14217;50.986;5.826;2023-03-04T19:50:30;1.13;;;0.60;;
26562;SDS011;14217;50.986;5.826;2023-03-04T19:55:35;0.93;;;0.50;;
26562;SDS011;14217;50.986;5.826;2023-03-04T20:00:38;1.63;;;0.85;;
26562;SDS011;14217;50.986;5.826;2023-03-04T20:05:40;1.27;;;0.40;;
26562;SDS011;14217;50.986;5.826;2023-03-04T20:10:42;1.90;;;0.45;;
26562;SDS011;14217;50.986;5.826;2023-03-04T20:15:44;5.40;;;0.68;;
26562;SDS011;14217;50.986;5.826;2023-03-04T20:20:46;2.00;;;0.50;;
26562;SDS011;14217;50.986;5.826;2023-03-04T20:25:49;11.82;;;1.67;;
26562;SDS011;14217;50.986;5.826;2023-03-04T20:30:51;10.32;;;1.25;;
26562;SDS011;14217;50.986;5.826;2023-03-04T20:35:54;5.30;;;0.63;;
26562;SDS011;14217;50.986;5.826;2023-03-04T20:40:56;7.47;;;0.80;;
26562;SDS011;14217;50.986;5.826;2023-03-04T20:46:44;2.92;;;0.52;;
26562;SDS011;14217;50.986;5.826;2023-03-04T20:51:28;8.63;;;1.10;;
26562;SDS011;14217;50.986;5.826;2023-03-04T20:56:32;9.25;;;0.75;;
26562;SDS011;14217;50.986;5.826;2023-03-04T21:01:38;5.53;;;1.25;;
26562;SDS011;14217;50.986;5.826;2023-03-04T21:06:41;1.13;;;0.43;;
26562;SDS011;14217;50.986;5.826;2023-03-04T21:11:44;1.90;;;0.40;;
26562;SDS011;14217;50.986;5.826;2023-03-04T21:16:47;9.18;;;0.63;;
26562;SDS011;14217;50.986;5.826;2023-03-04T21:21:51;2.60;;;0.70;;
26562;SDS011;14217;50.986;5.826;2023-03-04T21:26:54;1.02;;;0.65;;
26562;SDS011;14217;50.986;5.826;2023-03-04T21:32:00;8.27;;;0.30;;
26562;SDS011;14217;50.986;5.826;2023-03-04T21:37:23;2.22;;;0.50;;
26562;SDS011;14217;50.986;5.826;2023-03-04T21:42:26;0.77;;;0.45;;
26562;SDS011;14217;50.986;5.826;2023-03-04T21:47:28;0.88;;;0.50;;
26562;SDS011;14217;50.986;5.826;2023-03-04T21:52:30;1.13;;;0.57;;
26562;SDS011;14217;50.986;5.826;2023-03-04T21:57:32;3.55;;;0.25;;
26562;SDS011;14217;50.986;5.826;2023-03-04T22:02:34;2.15;;;0.50;;
26562;SDS011;14217;50.986;5.826;2023-03-04T22:07:37;0.82;;;0.57;;
26562;SDS011;14217;50.986;5.826;2023-03-04T22:12:39;2.53;;;0.73;;
26562;SDS011;14217;50.986;5.826;2023-03-04T22:17:41;2.28;;;0.22;;
26562;SDS011;14217;50.986;5.826;2023-03-04T22:22:46;7.47;;;0.30;;
26562;SDS011;14217;50.986;5.826;2023-03-04T22:27:48;1.13;;;0.50;;
26562;SDS011;14217;50.986;5.826;2023-03-04T22:32:50;0.88;;;0.50;;
26562;SDS011;14217;50.986;5.826;2023-03-04T22:37:52;0.68;;;0.30;;
26562;SDS011;14217;50.986;5.826;2023-03-04T22:42:54;1.17;;;0.35;;
26562;SDS011;14217;50.986;5.826;2023-03-04T22:47:56;1.67;;;0.50;;
26562;SDS011;14217;50.986;5.826;2023-03-04T22:52:57;0.65;;;0.43;;
26562;SDS011;14217;50.986;5.826;2023-03-04T22:58:00;1.70;;;0.40;;
26562;SDS011;14217;50.986;5.826;2023-03-04T23:03:03;1.05;;;0.30;;
26562;SDS011;14217;50.986;5.826;2023-03-04T23:08:06;0.30;;;0.20;;
26562;SDS011;14217;50.986;5.826;2023-03-04T23:13:09;3.80;;;0.40;;
26562;SDS011;14217;50.986;5.826;2023-03-04T23:18:11;1.30;;;0.40;;
26562;SDS011;14217;50.986;5.826;2023-03-04T23:23:13;0.88;;;0.30;;
26562;SDS011;14217;50.986;5.826;2023-03-04T23:28:15;0.43;;;0.40;;
26562;SDS011;14217;50.986;5.826;2023-03-04T23:33:17;1.27;;;0.40;;
26562;SDS011;14217;50.986;5.826;2023-03-04T23:38:19;1.13;;;0.22;;
26562;SDS011;14217;50.986;5.826;2023-03-04T23:43:21;0.82;;;0.38;;
26562;SDS011;14217;50.986;5.826;2023-03-04T23:48:23;1.05;;;0.40;;
26562;SDS011;14217;50.986;5.826;2023-03-04T23:53:25;1.48;;;0.35;;
26562;SDS011;14217;50.986;5.826;2023-03-04T23:58:28;1.90;;;0.30;;
